createdAt,value
2019-03-02T00:01:52.431Z,70.07
2019-03-02T00:04:20.939Z,70.52
2019-03-02T00:06:49.469Z,70.65
2019-03-02T00:09:18.009Z,70.69
2019-03-02T00:11:46.576Z,70.63
2019-03-02T00:14:15.717Z,70.66
2019-03-02T00:16:45.784Z,70.78
2019-03-02T00:19:14.296Z,70.90
2019-03-02T00:21:42.887Z,70.98
2019-03-02T00:24:11.457Z,71.47
2019-03-02T00:26:42.899Z,71.27
2019-03-02T00:29:11.068Z,71.41
2019-03-02T00:31:40.584Z,71.43
2019-03-02T00:34:09.181Z,71.37
2019-03-02T00:36:37.769Z,71.04
2019-03-02T00:39:46.217Z,71.28
2019-03-02T00:42:17.056Z,71.10
2019-03-02T00:44:45.258Z,71.30
2019-03-02T00:47:13.801Z,71.29
2019-03-02T00:49:42.350Z,71.09
2019-03-02T00:52:10.983Z,71.16
2019-03-02T00:54:39.565Z,71.26
2019-03-02T00:57:08.140Z,71.15
2019-03-02T00:59:39.373Z,71.17
2019-03-02T01:04:42.057Z,70.95
2019-03-02T01:07:10.597Z,70.78
2019-03-02T01:09:39.145Z,70.73
2019-03-02T01:12:09.126Z,70.74
2019-03-02T01:14:37.841Z,70.52
2019-03-02T01:17:06.809Z,70.61
2019-03-02T01:19:35.815Z,70.43
2019-03-02T01:22:04.374Z,70.33
2019-03-02T01:24:35.617Z,70.31
2019-03-02T01:27:43.218Z,70.06
2019-03-02T01:30:51.722Z,70.14
2019-03-02T01:33:20.249Z,70.35
2019-03-02T01:35:48.827Z,70.62
2019-03-02T01:38:18.690Z,70.80
2019-03-02T01:40:47.619Z,70.93
2019-03-02T01:43:16.249Z,70.94
2019-03-02T01:45:44.903Z,71.09
2019-03-02T01:48:13.517Z,71.00
2019-03-02T01:50:43.973Z,71.13
2019-03-02T01:53:12.505Z,71.10
2019-03-02T01:55:40.991Z,70.94
2019-03-02T01:58:09.635Z,71.10
2019-03-02T02:00:38.171Z,71.12
2019-03-02T02:03:08.491Z,71.13
2019-03-02T02:05:37.160Z,71.18
2019-03-02T02:08:05.669Z,71.07
2019-03-02T02:10:34.404Z,71.00
2019-03-02T02:15:51.982Z,70.77
2019-03-02T02:18:20.553Z,70.64
2019-03-02T02:20:50.379Z,70.44
2019-03-02T02:23:19.892Z,70.47
2019-03-02T02:25:48.462Z,70.59
2019-03-02T02:28:16.996Z,70.77
2019-03-02T02:30:45.557Z,70.68
2019-03-02T02:33:14.128Z,71.42
2019-03-02T02:35:42.689Z,71.74
2019-03-02T02:38:16.113Z,71.88
2019-03-02T02:40:41.989Z,71.86
2019-03-02T02:43:10.449Z,71.71
2019-03-02T02:45:39.011Z,71.55
2019-03-02T02:48:07.891Z,71.45
2019-03-02T02:50:36.562Z,71.21
2019-03-02T02:53:06.827Z,71.06
2019-03-02T02:55:36.154Z,71.09
2019-03-02T02:58:05.735Z,70.97
2019-03-02T03:00:35.754Z,71.18
2019-03-02T03:03:04.534Z,71.08
2019-03-02T03:05:33.195Z,71.05
2019-03-02T03:08:01.825Z,70.99
2019-03-02T03:13:19.535Z,71.58
2019-03-02T03:18:37.052Z,71.99
2019-03-02T03:21:05.639Z,72.48
2019-03-02T03:23:34.203Z,72.65
2019-03-02T03:26:22.525Z,72.69
2019-03-02T03:34:01.727Z,73.41
2019-03-02T03:36:33.873Z,73.58
2019-03-02T03:39:02.692Z,73.42
2019-03-02T03:41:30.910Z,73.93
2019-03-02T03:43:59.506Z,74.40
2019-03-02T03:46:27.950Z,74.97
2019-03-02T03:48:57.823Z,75.80
2019-03-02T03:51:30.460Z,75.92
2019-03-02T03:54:01.742Z,75.60
2019-03-02T03:57:07.168Z,75.48
2019-03-02T03:59:35.907Z,75.22
2019-03-02T04:02:04.469Z,75.02
2019-03-02T04:04:33.014Z,75.12
2019-03-02T04:07:06.318Z,75.06
2019-03-02T04:09:31.845Z,75.53
2019-03-02T04:12:00.486Z,75.66
2019-03-02T04:14:29.029Z,76.19
2019-03-02T04:17:00.555Z,76.50
2019-03-02T04:19:47.493Z,76.64
2019-03-02T04:22:55.958Z,76.82
2019-03-02T04:25:24.565Z,77.01
2019-03-02T04:27:55.893Z,76.78
2019-03-02T04:30:30.584Z,76.69
2019-03-02T04:32:53.869Z,76.96
2019-03-02T04:35:22.410Z,77.51
2019-03-02T04:37:50.980Z,77.90
2019-03-02T04:40:23.314Z,77.94
2019-03-02T04:45:25.174Z,78.53
2019-03-02T04:47:54.606Z,78.50
2019-03-02T04:50:26.942Z,78.52
2019-03-02T04:52:54.795Z,78.57
2019-03-02T04:55:23.370Z,78.35
2019-03-02T04:57:52.058Z,78.27
2019-03-02T05:00:20.675Z,78.91
2019-03-02T05:02:51.600Z,78.98
2019-03-02T05:05:19.444Z,79.45
2019-03-02T05:07:48.041Z,79.26
2019-03-02T05:10:16.674Z,79.36
2019-03-02T05:12:45.278Z,79.62
2019-03-02T05:15:34.673Z,79.76
2019-03-02T05:18:03.221Z,79.48
2019-03-02T05:20:32.629Z,79.37
2019-03-02T05:23:01.964Z,79.35
2019-03-02T05:28:18.280Z,79.35
2019-03-02T05:30:46.757Z,79.38
2019-03-02T05:33:15.311Z,79.13
2019-03-02T05:35:43.869Z,78.98
2019-03-02T05:38:15.261Z,78.82
2019-03-02T05:40:42.727Z,79.01
2019-03-02T05:43:11.193Z,79.09
2019-03-02T05:45:39.689Z,79.26
2019-03-02T05:48:08.255Z,79.18
2019-03-02T05:50:36.850Z,79.20
2019-03-02T05:53:05.331Z,79.09
2019-03-02T05:55:33.874Z,79.12
2019-03-02T05:58:02.363Z,79.01
2019-03-02T06:00:33.869Z,78.96
2019-03-02T06:03:01.304Z,79.06
2019-03-02T06:05:29.874Z,79.36
2019-03-02T06:08:00.517Z,79.48
2019-03-02T06:10:29.039Z,79.61
2019-03-02T06:12:57.614Z,79.50
2019-03-02T06:15:26.215Z,79.60
2019-03-02T06:17:54.686Z,79.46
2019-03-02T06:20:23.189Z,79.34
2019-03-02T06:22:52.334Z,79.21
2019-03-02T06:25:23.190Z,79.14
2019-03-02T06:27:52.356Z,79.23
2019-03-02T06:30:40.650Z,79.25
2019-03-02T06:33:10.498Z,79.25
2019-03-02T06:35:39.458Z,79.07
2019-03-02T06:38:08.015Z,79.01
2019-03-02T06:40:36.631Z,78.97
2019-03-02T06:43:05.246Z,79.04
2019-03-02T06:45:33.789Z,79.04
2019-03-02T06:48:02.351Z,78.96
2019-03-02T06:50:31.791Z,78.97
2019-03-02T06:53:01.742Z,79.17
2019-03-02T06:55:31.475Z,79.43
2019-03-02T06:57:59.980Z,79.91
2019-03-02T07:00:28.584Z,80.21
2019-03-02T07:02:57.197Z,80.46
2019-03-02T07:05:25.813Z,80.57
2019-03-02T07:07:57.292Z,80.40
2019-03-02T07:10:24.829Z,80.65
2019-03-02T07:15:43.769Z,80.42
2019-03-02T07:18:31.927Z,80.34
2019-03-02T07:21:02.934Z,80.19
2019-03-02T07:23:30.854Z,80.19
2019-03-02T07:25:59.488Z,79.97
2019-03-02T07:28:28.205Z,79.94
2019-03-02T07:30:56.765Z,80.36
2019-03-02T07:33:25.326Z,80.40
2019-03-02T07:35:55.507Z,80.15
2019-03-02T07:38:24.636Z,80.42
2019-03-02T07:43:47.871Z,80.59
2019-03-02T07:46:16.519Z,80.62
2019-03-02T07:48:45.175Z,80.84
2019-03-02T07:51:13.860Z,81.21
2019-03-02T07:53:42.399Z,81.62
2019-03-02T07:56:32.484Z,81.44
2019-03-02T07:59:00.563Z,81.58
2019-03-02T08:01:29.117Z,81.49
2019-03-02T08:04:38.473Z,81.32
2019-03-02T08:07:07.988Z,80.79
2019-03-02T08:09:36.616Z,80.69
2019-03-02T08:12:05.135Z,81.00
2019-03-02T08:14:33.769Z,80.88
2019-03-02T08:17:02.466Z,80.69
2019-03-02T08:19:31.028Z,80.45
2019-03-02T08:21:59.631Z,80.66
2019-03-02T08:24:28.248Z,80.56
2019-03-02T08:26:56.867Z,80.48
2019-03-02T08:29:25.454Z,79.65
2019-03-02T08:31:53.997Z,79.43
2019-03-02T08:34:22.674Z,79.36
2019-03-02T08:36:54.233Z,79.22
2019-03-02T08:39:21.952Z,78.53
2019-03-02T08:41:50.711Z,78.30
2019-03-02T08:44:19.893Z,78.19
2019-03-02T08:46:49.928Z,78.39
2019-03-02T08:49:18.843Z,77.81
2019-03-02T08:51:47.416Z,77.45
2019-03-02T08:54:17.884Z,77.40
2019-03-02T08:56:47.726Z,77.10
2019-03-02T08:59:16.781Z,76.79
2019-03-02T09:01:45.431Z,76.83
2019-03-02T09:04:15.114Z,76.54
2019-03-02T09:06:44.435Z,75.92
2019-03-02T09:09:13.039Z,75.60
2019-03-02T09:11:44.439Z,76.15
2019-03-02T09:14:12.697Z,76.05
2019-03-02T09:16:42.619Z,74.60
2019-03-02T09:19:12.597Z,74.93
2019-03-02T09:21:41.313Z,75.08
2019-03-02T09:24:13.012Z,74.75
2019-03-02T09:26:40.465Z,74.83
2019-03-02T09:29:08.966Z,74.81
2019-03-02T09:34:27.518Z,73.65
2019-03-02T09:36:56.805Z,73.00
2019-03-02T09:39:25.311Z,73.25
2019-03-02T09:41:53.894Z,73.72
2019-03-02T09:44:22.541Z,73.37
2019-03-02T09:46:51.177Z,73.58
2019-03-02T09:49:19.846Z,72.73
2019-03-02T09:51:49.317Z,72.75
2019-03-02T09:54:19.453Z,72.99
2019-03-02T09:56:47.851Z,72.48
2019-03-02T09:59:16.678Z,72.72
2019-03-02T10:01:45.256Z,73.01
2019-03-02T10:04:13.770Z,72.60
2019-03-02T10:06:42.433Z,72.19
2019-03-02T10:09:50.903Z,72.96
2019-03-02T10:12:19.437Z,72.81
2019-03-02T10:14:48.108Z,72.88
2019-03-02T10:17:16.651Z,72.42
2019-03-02T10:19:45.242Z,72.43
2019-03-02T10:22:14.193Z,71.49
2019-03-02T10:24:42.741Z,70.93
2019-03-02T10:27:11.323Z,71.38
2019-03-02T10:29:39.950Z,71.45
2019-03-02T10:32:21.506Z,71.66
2019-03-02T10:34:50.030Z,71.43
2019-03-02T10:37:18.658Z,70.93
2019-03-02T10:39:47.214Z,70.87
2019-03-02T10:42:15.888Z,70.61
2019-03-02T10:44:44.638Z,70.69
2019-03-02T10:47:14.859Z,70.91
2019-03-02T10:49:44.648Z,69.63
2019-03-02T10:52:14.469Z,69.67
2019-03-02T10:54:44.716Z,70.24
2019-03-02T10:57:13.230Z,70.48
2019-03-02T10:59:41.822Z,69.72
2019-03-02T11:02:10.902Z,69.77
2019-03-02T11:04:58.604Z,67.73
2019-03-02T11:10:35.453Z,67.20
2019-03-02T11:13:23.199Z,67.36
2019-03-02T11:16:10.902Z,67.30
2019-03-02T11:18:58.612Z,67.02
2019-03-02T11:24:35.894Z,65.29
2019-03-02T11:27:23.546Z,65.66
2019-03-02T11:32:46.762Z,62.63
2019-03-02T11:35:34.475Z,63.37
2019-03-02T11:38:22.075Z,63.24
2019-03-02T11:41:10.337Z,63.10
2019-03-02T11:43:57.991Z,63.18
2019-03-02T11:49:30.046Z,61.41
2019-03-02T11:52:10.530Z,61.19
2019-03-02T11:55:00.906Z,61.05
2019-03-02T12:03:18.249Z,59.29
2019-03-02T12:06:07.035Z,59.51
2019-03-02T12:11:31.491Z,59.05
2019-03-02T12:17:00.131Z,59.77
2019-03-02T12:19:48.069Z,59.16
2019-03-02T12:22:35.727Z,58.95
2019-03-02T12:28:18.186Z,58.62
2019-03-02T12:31:05.886Z,58.64
2019-03-02T12:33:54.013Z,57.03
2019-03-02T12:36:43.054Z,57.93
2019-03-02T12:39:30.634Z,56.68
2019-03-02T12:42:18.348Z,56.58
2019-03-02T12:47:55.142Z,56.60
2019-03-02T12:50:42.859Z,56.80
2019-03-02T12:53:30.513Z,57.62
2019-03-02T12:56:18.226Z,57.83
2019-03-02T12:59:05.913Z,57.43
2019-03-02T13:04:32.570Z,57.36
2019-03-02T13:07:20.233Z,57.82
2019-03-02T13:10:07.837Z,58.01
2019-03-02T13:12:55.534Z,58.04
2019-03-02T13:18:32.521Z,57.22
2019-03-02T13:24:09.637Z,56.40
2019-03-02T13:26:57.243Z,55.45
2019-03-02T13:34:55.463Z,56.12
2019-03-02T13:37:43.128Z,56.35
2019-03-02T13:40:33.571Z,57.13
2019-03-02T13:46:09.637Z,57.23
2019-03-02T13:48:58.176Z,57.84
2019-03-02T13:51:46.715Z,57.86
2019-03-02T13:57:23.842Z,57.60
2019-03-02T14:00:11.537Z,57.67
2019-03-02T14:02:59.682Z,56.63
2019-03-02T14:05:47.446Z,56.53
2019-03-02T14:11:32.464Z,56.55
2019-03-02T14:14:21.047Z,56.32
2019-03-02T14:19:57.934Z,56.08
2019-03-02T14:22:48.974Z,56.26
2019-03-02T14:30:46.164Z,57.69
2019-03-02T14:33:34.135Z,57.11
2019-03-02T14:39:18.213Z,57.56
2019-03-02T14:51:07.137Z,56.30
2019-03-02T14:54:09.481Z,56.49
2019-03-02T14:56:48.375Z,56.41
2019-03-02T14:59:37.752Z,55.50
2019-03-02T15:07:59.970Z,56.28
2019-03-02T15:10:48.068Z,56.58
2019-03-02T15:13:35.761Z,57.12
2019-03-02T15:16:44.223Z,57.28
2019-03-02T15:19:31.851Z,57.98
2019-03-02T15:22:20.444Z,57.77
2019-03-02T15:25:08.991Z,57.80
2019-03-02T15:27:57.415Z,57.87
2019-03-02T15:33:37.635Z,58.12
2019-03-02T15:36:24.542Z,58.28
2019-03-02T15:39:12.813Z,58.37
2019-03-02T15:44:50.745Z,58.83
2019-03-02T15:47:38.423Z,58.92
2019-03-02T15:50:46.877Z,58.55
2019-03-02T15:56:24.464Z,58.70
2019-03-02T16:04:39.083Z,59.35
2019-03-02T16:10:05.595Z,60.24
2019-03-02T16:15:48.967Z,60.23
2019-03-02T16:18:38.442Z,60.25
2019-03-02T16:21:26.878Z,60.21
2019-03-02T16:24:14.376Z,60.94
2019-03-02T16:29:40.871Z,61.05
2019-03-02T16:32:51.825Z,61.54
2019-03-02T16:35:40.383Z,61.66
2019-03-02T16:38:31.015Z,61.79
2019-03-02T16:41:17.505Z,62.24
2019-03-02T16:46:44.450Z,62.81
2019-03-02T16:49:32.174Z,63.19
2019-03-02T16:52:20.136Z,63.54
2019-03-02T16:55:09.510Z,63.50
2019-03-02T16:57:57.314Z,63.73
2019-03-02T17:00:48.604Z,63.73
2019-03-02T17:03:35.002Z,63.66
2019-03-02T17:11:43.422Z,63.67
2019-03-02T17:14:31.120Z,63.75
2019-03-02T17:17:18.807Z,63.79
2019-03-02T17:25:20.868Z,63.80
2019-03-02T17:28:08.530Z,63.73
2019-03-02T17:30:58.195Z,63.95
2019-03-02T17:33:45.651Z,64.02
2019-03-02T17:39:12.310Z,64.43
2019-03-02T17:44:35.690Z,64.45
2019-03-02T17:52:34.672Z,64.74
2019-03-02T17:58:11.532Z,65.24
2019-03-02T18:00:59.195Z,65.79
2019-03-02T18:03:50.180Z,65.52
2019-03-02T18:09:05.750Z,66.15
2019-03-02T18:11:54.751Z,66.27
2019-03-02T18:14:44.196Z,66.36
2019-03-02T18:17:32.308Z,66.48
2019-03-02T18:22:56.127Z,66.72
2019-03-02T18:25:25.022Z,66.69
2019-03-02T18:30:24.316Z,67.01
2019-03-02T18:35:53.495Z,67.75
2019-03-02T18:38:22.177Z,67.89
2019-03-02T18:40:52.155Z,68.42
2019-03-02T18:43:21.234Z,68.99
2019-03-02T18:45:49.941Z,69.13
2019-03-02T18:54:22.977Z,69.86
2019-03-02T18:57:31.436Z,70.17
2019-03-02T19:00:00.137Z,70.63
2019-03-02T19:02:29.144Z,71.27
2019-03-02T19:04:59.553Z,71.83
2019-03-02T19:07:28.091Z,71.95
2019-03-02T19:09:56.749Z,72.07
2019-03-02T19:12:28.004Z,72.45
2019-03-02T19:14:57.793Z,72.82
2019-03-02T19:17:26.116Z,73.07
2019-03-02T19:19:54.891Z,73.25
2019-03-02T19:22:23.734Z,73.60
2019-03-02T19:24:52.448Z,73.97
2019-03-02T19:27:22.821Z,74.14
2019-03-02T19:29:51.340Z,74.17
2019-03-02T19:32:19.961Z,74.52
2019-03-02T19:34:48.680Z,74.75
2019-03-02T19:37:17.277Z,74.84
2019-03-02T19:39:45.836Z,75.27
2019-03-02T19:53:52.082Z,76.82
2019-03-02T19:56:21.290Z,77.03
2019-03-02T19:58:50.635Z,77.11
2019-03-02T20:06:36.116Z,77.67
2019-03-02T20:09:44.640Z,77.60
2019-03-02T20:12:13.416Z,77.83
2019-03-02T20:14:42.117Z,78.36
2019-03-02T20:17:10.821Z,78.60
2019-03-02T20:22:31.731Z,78.75
2019-03-02T20:25:00.577Z,79.05
2019-03-02T20:27:29.232Z,79.05
2019-03-02T20:29:57.946Z,79.36
2019-03-02T20:32:26.637Z,79.44
2019-03-02T20:34:55.404Z,79.34
2019-03-02T20:37:24.051Z,79.68
2019-03-02T20:39:52.708Z,80.26
2019-03-02T20:42:40.458Z,80.82
2019-03-02T20:45:48.960Z,81.04
2019-03-02T20:48:57.683Z,81.24
2019-03-02T20:51:26.336Z,81.50
2019-03-02T20:53:54.880Z,81.61
2019-03-02T20:56:23.494Z,81.86
2019-03-02T20:58:54.636Z,82.33
2019-03-02T21:04:13.212Z,82.44
2019-03-02T21:06:42.304Z,82.36
2019-03-02T21:09:11.104Z,82.23
2019-03-02T21:11:39.592Z,82.16
2019-03-02T21:14:08.245Z,82.32
2019-03-02T21:16:36.884Z,82.66
2019-03-02T21:19:24.631Z,82.75
2019-03-02T21:21:53.303Z,82.87
2019-03-02T21:24:21.867Z,83.03
2019-03-02T21:26:50.324Z,83.30
2019-03-02T21:29:18.934Z,83.35
2019-03-02T21:31:47.603Z,83.31
2019-03-02T21:34:16.261Z,83.41
2019-03-02T21:36:44.894Z,83.63
2019-03-02T21:39:53.459Z,83.55
2019-03-02T21:42:22.018Z,83.48
2019-03-02T21:44:52.631Z,83.88
2019-03-02T21:47:20.806Z,83.65
2019-03-02T21:49:49.348Z,83.60
2019-03-02T21:52:18.319Z,83.55
2019-03-02T21:54:48.446Z,83.69
2019-03-02T21:57:17.080Z,83.34
2019-03-02T21:59:45.641Z,83.40
2019-03-02T22:02:14.571Z,83.28
2019-03-02T22:04:43.150Z,83.32
2019-03-02T22:07:11.870Z,83.10
2019-03-02T22:09:40.443Z,83.10
2019-03-02T22:17:58.043Z,83.06
2019-03-02T22:20:26.680Z,83.05
2019-03-02T22:22:55.277Z,83.07
2019-03-02T22:26:03.997Z,83.21
2019-03-02T22:28:32.953Z,83.39
2019-03-02T22:31:01.842Z,83.29
2019-03-02T22:33:30.409Z,83.17
2019-03-02T22:35:58.813Z,83.05
2019-03-02T22:38:27.264Z,83.11
2019-03-02T22:40:55.963Z,83.60
2019-03-02T22:43:24.403Z,83.46
2019-03-02T22:45:53.183Z,83.74
2019-03-02T22:48:21.868Z,83.99
2019-03-02T22:50:50.400Z,84.40
2019-03-02T22:53:18.977Z,84.36
2019-03-02T22:55:47.642Z,84.51
2019-03-02T23:01:49.705Z,84.82
2019-03-02T23:04:37.680Z,84.60
2019-03-02T23:07:06.323Z,84.79
2019-03-02T23:09:35.217Z,85.06
2019-03-02T23:14:52.872Z,85.61
2019-03-02T23:17:21.425Z,85.51
2019-03-02T23:19:49.974Z,85.56
2019-03-02T23:22:18.574Z,85.41
2019-03-02T23:24:47.594Z,85.17
2019-03-02T23:27:16.591Z,85.14
2019-03-02T23:29:45.199Z,85.33
2019-03-02T23:32:13.787Z,85.52
2019-03-02T23:34:42.401Z,85.69
2019-03-02T23:37:10.995Z,86.33
2019-03-02T23:39:39.639Z,86.38
2019-03-02T23:42:08.340Z,86.39
2019-03-02T23:44:37.004Z,86.63
2019-03-02T23:47:05.737Z,86.65
2019-03-02T23:49:34.278Z,87.04
2019-03-02T23:52:02.810Z,87.10
2019-03-02T23:54:32.044Z,87.41
2019-03-02T23:57:00.929Z,87.20
2019-03-02T23:59:29.632Z,87.16
